DW4338 Bergen NO current weather conditions

sailwx.info

Wind from 313 at 11 knots gusting 19

Air temperature 16.7° C
Dewpoint 14.7° C

Last reported at 2014-Jul-29 01:42 UTC.
Time now 2014-Jul-29 02:33 UTC

Location: N 60°31' E 004°54'.
View on Google Maps.

See reports from other nearby stations

  
Tides and Currents Weather Stations Pressure Air Temp Water Temp Dewpoint Dewpoint Depression Visibility Wind Speed Wind Dir Waves Ship Positions
date/time (UTC)wind fromknots sea level pressurealtimeterstation pressurevisibilityair tempwater tempwave heightnotes
2014-Jul-29 01:42 313 11 gusting 19 16.7
2014-Jul-29 01:27 314 10 gusting 18 16.7
2014-Jul-29 01:12 306 6 gusting 16 16.7
2014-Jul-29 00:57 296 9 gusting 15 16.7
2014-Jul-29 00:42 301 11 gusting 19 16.7
2014-Jul-29 00:27 277 13 gusting 19 16.7
2014-Jul-29 00:12 286 11 gusting 20 17.2
2014-Jul-28 23:57 307 11 gusting 19 17.2
2014-Jul-28 23:42 284 13 gusting 22 17.2
2014-Jul-28 23:27 296 12 gusting 19 17.2
2014-Jul-28 23:12 310 12 gusting 18 17.2
2014-Jul-28 22:57 292 9 gusting 17 17.8
2014-Jul-28 22:42 310 7 gusting 13 17.8
2014-Jul-28 22:27 317 7 gusting 14 17.8
2014-Jul-28 22:12 295 7 gusting 14 17.8
2014-Jul-28 21:57 305 6 gusting 13 17.8
2014-Jul-28 21:42 316 5 gusting 13 17.8
2014-Jul-28 21:27 302 4 gusting 14 17.8
2014-Jul-28 21:12 327 2 gusting 13 17.8
2014-Jul-28 20:57 320 4 gusting 12 17.8
2014-Jul-28 20:42 311 4 gusting 10 18.3
2014-Jul-28 20:27 316 1 gusting 11 18.3
2014-Jul-28 20:12 313 0 gusting 12 18.3
2014-Jul-28 19:57 301 6 gusting 13 18.3
2014-Jul-28 19:42 308 6 gusting 13 18.9
2014-Jul-28 19:27 279 18.3
2014-Jul-28 19:12 279 1 gusting 6 18.9
2014-Jul-28 18:57 279 2 gusting 6 18.9
2014-Jul-28 18:42 261 18.9
2014-Jul-28 18:27 261 18.9
2014-Jul-28 18:12 259 19.4
2014-Jul-28 17:57 259 1 gusting 6 19.4
2014-Jul-28 17:42 257 5 gusting 9 20.0
2014-Jul-28 17:26 217 3 gusting 8 19.4
2014-Jul-28 17:11 248 3 gusting 11 20.0
2014-Jul-28 16:56 298 5 gusting 11 20.0
2014-Jul-28 16:41 261 5 gusting 10 20.0
2014-Jul-28 16:26 277 4 gusting 12 19.4
2014-Jul-28 16:11 312 2 gusting 14 19.4
2014-Jul-28 15:56 307 6 gusting 13 19.4
2014-Jul-28 15:41 254 4 gusting 13 20.0
2014-Jul-28 15:26 232 5 gusting 13 20.0
2014-Jul-28 15:11 227 6 gusting 14 20.0
2014-Jul-28 14:56 249 6 gusting 14 20.6
2014-Jul-28 14:41 263 6 gusting 14 20.6
2014-Jul-28 14:26 273 6 gusting 15 20.6
2014-Jul-28 14:11 274 6 gusting 13 20.6
2014-Jul-28 13:56 300 7 gusting 13 20.6
2014-Jul-28 13:41 298 6 gusting 13 20.6
2014-Jul-28 13:27 319 8 gusting 13 20.0
2014-Jul-28 13:12 306 9 gusting 14 20.0
2014-Jul-28 02:11 098 17.2
2014-Jul-28 01:56 103 1 gusting 11 17.8
2014-Jul-28 01:41 296 17.8
2014-Jul-28 01:26 296 18.3
2014-Jul-28 01:11 296 18.3
2014-Jul-28 00:56 296 18.9
2014-Jul-28 00:41 296 18.9
2014-Jul-28 00:26 296 0 gusting 7 18.3
2014-Jul-28 00:11 296 18.3
2014-Jul-27 23:56 296 5 gusting 13 18.9
2014-Jul-27 23:41 296 5 gusting 11 18.9
2014-Jul-27 23:26 296 6 gusting 11 18.9
2014-Jul-27 23:11 295 8 gusting 13 18.3
2014-Jul-27 22:56 291 8 gusting 16 18.9
2014-Jul-27 22:41 290 18.3
2014-Jul-27 22:25 290 2 gusting 6 18.9
2014-Jul-27 22:10 290 18.9
2014-Jul-27 21:55 290 18.9
2014-Jul-27 21:40 290 18.9
2014-Jul-27 21:25 290 18.9
2014-Jul-27 21:10 290 18.9
2014-Jul-27 20:55 290 18.9
2014-Jul-27 20:40 290 18.9
2014-Jul-27 20:25 290 18.9
2014-Jul-27 20:10 290 18.3
2014-Jul-27 19:55 290 18.3
2014-Jul-27 19:40 290 18.9
2014-Jul-27 19:25 290 18.9
2014-Jul-27 19:10 290 18.9
2014-Jul-27 18:55 290 18.9
2014-Jul-27 18:40 290 18.9
2014-Jul-27 18:25 290 18.9
2014-Jul-27 18:10 287 0 gusting 6 18.9
2014-Jul-27 17:55 287 19.4
2014-Jul-27 17:40 287 19.4
2014-Jul-27 17:25 287 19.4
2014-Jul-27 17:10 287 18.9
2014-Jul-27 16:55 287 18.9
2014-Jul-27 16:40 287 18.9
2014-Jul-27 16:25 287 18.9
2014-Jul-27 16:10 287 19.4
2014-Jul-27 15:55 287 20.0
2014-Jul-27 15:40 287 20.6
2014-Jul-27 15:25 287 20.6
2014-Jul-27 15:10 280 20.6
2014-Jul-27 14:55 250 1 gusting 6 20.6
2014-Jul-27 14:40 227 20.6
2014-Jul-27 14:25 227 21.1
2014-Jul-27 14:10 227 21.1
2014-Jul-27 13:55 222 0 gusting 13 21.1
2014-Jul-27 13:40 222 21.1
2014-Jul-27 13:25 232 1 gusting 6 20.6
2014-Jul-27 13:10 232 0 gusting 9 20.0
2014-Jul-27 12:55 244 0 gusting 7 20.6
2014-Jul-27 12:40 224 21.1
2014-Jul-27 12:25 236 7 gusting 17 21.7
2014-Jul-27 12:10 234 1 gusting 16 21.7
2014-Jul-27 11:55 260 1 gusting 19 22.2
2014-Jul-27 11:40 236 6 gusting 21 22.2
2014-Jul-27 11:25 237 7 gusting 22 22.8
2014-Jul-27 11:10 286 6 gusting 21 22.8
2014-Jul-27 10:55 267 11 gusting 22 22.8
2014-Jul-27 10:40 285 8 gusting 19 22.8
2014-Jul-27 10:25 262 4 gusting 22 22.8
2014-Jul-27 10:10 272 5 gusting 20 22.2
2014-Jul-27 09:55 277 9 gusting 20 22.8
2014-Jul-27 09:40 248 7 gusting 18 22.8
2014-Jul-27 09:25 187 6 gusting 17 22.8
2014-Jul-27 09:10 162 5 gusting 15 23.3
2014-Jul-27 08:55 116 8 gusting 17 23.3
2014-Jul-27 08:40 103 2 gusting 13 23.3
2014-Jul-27 08:25 103 23.3
2014-Jul-27 08:10 103 0 gusting 13 23.3
2014-Jul-27 07:55 103 23.3
2014-Jul-27 07:40 103 0 gusting 7 22.8
2014-Jul-27 07:25 103 0 gusting 7 22.2
2014-Jul-27 07:09 103 22.2
2014-Jul-27 06:54 103 21.1
2014-Jul-27 06:39 103 0 gusting 7 20.6
2014-Jul-27 06:24 103 20.0
2014-Jul-27 06:09 103 20.0
2014-Jul-27 05:54 103 3 gusting 12 19.4
2014-Jul-27 05:39 103 0 gusting 11 19.4
2014-Jul-27 05:24 103 1 gusting 9 18.9
2014-Jul-27 05:09 103 18.9
2014-Jul-27 04:54 103 4 gusting 7 18.3
2014-Jul-27 04:39 103 0 gusting 6 18.3
2014-Jul-27 04:24 103 3 gusting 6 18.3
2014-Jul-27 04:09 103 18.3
2014-Jul-27 03:54 103 18.3
2014-Jul-27 03:39 103 18.3
2014-Jul-27 03:24 103 18.3
2014-Jul-27 03:09 103 18.3
2014-Jul-27 02:54 103 18.3
2014-Jul-27 02:39 103 18.3
2014-Jul-27 02:24 103 18.3
2014-Jul-27 02:09 103 18.3